sensor_id;sensor_type;location;lat;lon;timestamp;pressure;altitude;pressure_sealevel;temperature;humidity
40954;BME280;26686;50.130;8.710;2023-04-21T00:00:52;99899.56;;;10.07;81.26
40954;BME280;26686;50.130;8.710;2023-04-21T00:05:54;99889.44;;;10.01;81.73
40954;BME280;26686;50.130;8.710;2023-04-21T00:10:56;99898.88;;;10.05;82.06
40954;BME280;26686;50.130;8.710;2023-04-21T00:15:57;99897.81;;;9.96;82.22
40954;BME280;26686;50.130;8.710;2023-04-21T00:20:59;99906.41;;;10.00;82.17
40954;BME280;26686;50.130;8.710;2023-04-21T00:26:00;99904.34;;;9.92;82.50
40954;BME280;26686;50.130;8.710;2023-04-21T00:31:03;99888.53;;;9.90;82.48
40954;BME280;26686;50.130;8.710;2023-04-21T00:36:04;99892.19;;;9.89;82.31
40954;BME280;26686;50.130;8.710;2023-04-21T00:41:06;99875.88;;;9.83;82.72
40954;BME280;26686;50.130;8.710;2023-04-21T00:46:07;99876.50;;;9.86;82.88
40954;BME280;26686;50.130;8.710;2023-04-21T00:51:09;99879.41;;;9.83;82.48
40954;BME280;26686;50.130;8.710;2023-04-21T00:56:10;99870.00;;;9.79;82.89
40954;BME280;26686;50.130;8.710;2023-04-21T01:01:12;99872.44;;;9.71;82.98
40954;BME280;26686;50.130;8.710;2023-04-21T01:06:13;99866.84;;;9.74;82.43
40954;BME280;26686;50.130;8.710;2023-04-21T01:11:15;99859.88;;;9.73;82.28
40954;BME280;26686;50.130;8.710;2023-04-21T01:16:17;99869.25;;;9.77;82.72
40954;BME280;26686;50.130;8.710;2023-04-21T01:21:19;99855.56;;;9.61;82.94
40954;BME280;26686;50.130;8.710;2023-04-21T01:26:21;99857.72;;;9.67;83.05
40954;BME280;26686;50.130;8.710;2023-04-21T01:31:23;99858.09;;;9.62;83.11
40954;BME280;26686;50.130;8.710;2023-04-21T01:36:25;99853.63;;;9.63;83.11
40954;BME280;26686;50.130;8.710;2023-04-21T01:41:26;99854.84;;;9.59;83.74
40954;BME280;26686;50.130;8.710;2023-04-21T01:46:28;99864.97;;;9.65;83.09
40954;BME280;26686;50.130;8.710;2023-04-21T01:51:29;99859.78;;;9.63;82.80
40954;BME280;26686;50.130;8.710;2023-04-21T01:56:31;99861.59;;;9.63;83.03
40954;BME280;26686;50.130;8.710;2023-04-21T02:01:33;99861.88;;;9.60;83.13
40954;BME280;26686;50.130;8.710;2023-04-21T02:06:36;99856.31;;;9.51;83.09
40954;BME280;26686;50.130;8.710;2023-04-21T02:11:37;99862.38;;;9.53;83.26
40954;BME280;26686;50.130;8.710;2023-04-21T02:16:39;99850.56;;;9.35;83.24
40954;BME280;26686;50.130;8.710;2023-04-21T02:21:41;99861.63;;;9.51;83.27
40954;BME280;26686;50.130;8.710;2023-04-21T02:26:42;99852.47;;;9.44;83.35
40954;BME280;26686;50.130;8.710;2023-04-21T02:31:44;99873.25;;;9.50;83.60
40954;BME280;26686;50.130;8.710;2023-04-21T02:37:01;99866.00;;;9.41;83.58
40954;BME280;26686;50.130;8.710;2023-04-21T02:42:02;99868.22;;;9.36;83.96
40954;BME280;26686;50.130;8.710;2023-04-21T02:47:04;99881.69;;;9.44;83.96
40954;BME280;26686;50.130;8.710;2023-04-21T02:52:05;99874.47;;;9.46;84.06
40954;BME280;26686;50.130;8.710;2023-04-21T02:57:06;99863.59;;;9.38;84.18
40954;BME280;26686;50.130;8.710;2023-04-21T03:02:08;99859.78;;;9.31;84.57
40954;BME280;26686;50.130;8.710;2023-04-21T03:07:12;99868.34;;;9.34;84.68
40954;BME280;26686;50.130;8.710;2023-04-21T03:12:14;99854.47;;;9.31;84.70
40954;BME280;26686;50.130;8.710;2023-04-21T03:17:16;99876.75;;;9.40;84.51
40954;BME280;26686;50.130;8.710;2023-04-21T03:22:17;99864.13;;;9.32;84.37
40954;BME280;26686;50.130;8.710;2023-04-21T03:27:18;99881.13;;;9.41;84.27
40954;BME280;26686;50.130;8.710;2023-04-21T03:32:20;99885.84;;;9.37;84.72
40954;BME280;26686;50.130;8.710;2023-04-21T03:37:22;99872.19;;;9.30;84.84
40954;BME280;26686;50.130;8.710;2023-04-21T03:42:23;99865.09;;;9.31;84.93
40954;BME280;26686;50.130;8.710;2023-04-21T03:47:25;99859.78;;;9.31;84.16
40954;BME280;26686;50.130;8.710;2023-04-21T03:52:27;99857.59;;;9.36;84.47
40954;BME280;26686;50.130;8.710;2023-04-21T03:57:28;99859.53;;;9.34;84.18
40954;BME280;26686;50.130;8.710;2023-04-21T04:02:30;99853.22;;;9.35;83.69
40954;BME280;26686;50.130;8.710;2023-04-21T04:07:32;99872.06;;;9.32;83.93
40954;BME280;26686;50.130;8.710;2023-04-21T04:12:33;99880.28;;;9.29;84.48
40954;BME280;26686;50.130;8.710;2023-04-21T04:17:34;99853.78;;;9.17;84.59
40954;BME280;26686;50.130;8.710;2023-04-21T04:22:36;99872.84;;;9.23;84.91
40954;BME280;26686;50.130;8.710;2023-04-21T04:27:37;99863.66;;;9.15;84.48
40954;BME280;26686;50.130;8.710;2023-04-21T04:32:39;99874.53;;;9.24;84.95
40954;BME280;26686;50.130;8.710;2023-04-21T04:37:41;99872.44;;;9.27;85.30
40954;BME280;26686;50.130;8.710;2023-04-21T04:42:43;99869.53;;;9.30;85.27
40954;BME280;26686;50.130;8.710;2023-04-21T04:47:48;99859.53;;;9.34;85.08
40954;BME280;26686;50.130;8.710;2023-04-21T04:52:50;99855.06;;;9.34;85.30
40954;BME280;26686;50.130;8.710;2023-04-21T04:57:51;99845.88;;;9.38;85.80
40954;BME280;26686;50.130;8.710;2023-04-21T05:02:53;99859.16;;;9.38;85.89
40954;BME280;26686;50.130;8.710;2023-04-21T05:07:55;99867.72;;;9.42;86.20
40954;BME280;26686;50.130;8.710;2023-04-21T05:12:57;99867.13;;;9.38;86.66
40954;BME280;26686;50.130;8.710;2023-04-21T05:17:59;99864.66;;;9.47;86.43
40954;BME280;26686;50.130;8.710;2023-04-21T05:23:00;99859.97;;;9.50;86.53
40954;BME280;26686;50.130;8.710;2023-04-21T05:28:02;99874.28;;;9.59;86.63
40954;BME280;26686;50.130;8.710;2023-04-21T05:33:03;99865.97;;;9.64;86.65
40954;BME280;26686;50.130;8.710;2023-04-21T05:38:05;99858.34;;;9.59;86.75
40954;BME280;26686;50.130;8.710;2023-04-21T05:43:06;99877.75;;;9.71;86.94
40954;BME280;26686;50.130;8.710;2023-04-21T05:48:08;99867.97;;;9.71;86.82
40954;BME280;26686;50.130;8.710;2023-04-21T05:53:13;99862.84;;;9.80;86.97
40954;BME280;26686;50.130;8.710;2023-04-21T05:58:14;99870.66;;;9.93;87.09
40954;BME280;26686;50.130;8.710;2023-04-21T06:03:16;99869.28;;;9.98;86.52
40954;BME280;26686;50.130;8.710;2023-04-21T06:08:17;99876.63;;;10.06;86.54
40954;BME280;26686;50.130;8.710;2023-04-21T06:13:19;99873.25;;;10.04;86.95
40954;BME280;26686;50.130;8.710;2023-04-21T06:18:21;99870.41;;;10.17;87.01
40954;BME280;26686;50.130;8.710;2023-04-21T06:23:22;99864.16;;;10.27;86.80
40954;BME280;26686;50.130;8.710;2023-04-21T06:28:24;99877.16;;;10.42;86.26
40954;BME280;26686;50.130;8.710;2023-04-21T06:33:25;99855.34;;;10.48;86.09
40954;BME280;26686;50.130;8.710;2023-04-21T06:38:27;99875.44;;;10.62;86.02
40954;BME280;26686;50.130;8.710;2023-04-21T06:43:28;99876.25;;;10.63;86.83
40954;BME280;26686;50.130;8.710;2023-04-21T06:48:30;99865.81;;;10.71;86.33
40954;BME280;26686;50.130;8.710;2023-04-21T06:53:32;99876.22;;;10.84;86.21
40954;BME280;26686;50.130;8.710;2023-04-21T06:58:33;99862.25;;;11.01;86.51
40954;BME280;26686;50.130;8.710;2023-04-21T07:03:34;99869.47;;;11.20;85.93
40954;BME280;26686;50.130;8.710;2023-04-21T07:08:46;99870.75;;;11.36;85.43
40954;BME280;26686;50.130;8.710;2023-04-21T07:13:47;99867.97;;;11.47;83.40
40954;BME280;26686;50.130;8.710;2023-04-21T07:18:49;99869.91;;;11.35;84.00
40954;BME280;26686;50.130;8.710;2023-04-21T07:23:51;99867.13;;;11.37;83.74
40954;BME280;26686;50.130;8.710;2023-04-21T07:28:53;99869.78;;;11.37;84.26
40954;BME280;26686;50.130;8.710;2023-04-21T07:33:55;99862.19;;;11.42;84.57
40954;BME280;26686;50.130;8.710;2023-04-21T07:38:57;99878.66;;;11.66;83.37
40954;BME280;26686;50.130;8.710;2023-04-21T07:43:59;99881.03;;;11.79;82.82
40954;BME280;26686;50.130;8.710;2023-04-21T07:49:00;99875.56;;;11.91;82.50
40954;BME280;26686;50.130;8.710;2023-04-21T07:54:04;99871.22;;;11.99;82.05
40954;BME280;26686;50.130;8.710;2023-04-21T07:59:06;99857.03;;;11.89;81.92
40954;BME280;26686;50.130;8.710;2023-04-21T08:04:07;99871.22;;;12.09;81.73
40954;BME280;26686;50.130;8.710;2023-04-21T08:09:09;99855.88;;;12.21;82.04
40954;BME280;26686;50.130;8.710;2023-04-21T08:14:11;99852.34;;;12.30;81.13
40954;BME280;26686;50.130;8.710;2023-04-21T08:19:15;99854.72;;;12.43;81.76
40954;BME280;26686;50.130;8.710;2023-04-21T08:24:17;99864.91;;;12.58;81.26
40954;BME280;26686;50.130;8.710;2023-04-21T08:29:19;99861.19;;;12.68;80.12
40954;BME280;26686;50.130;8.710;2023-04-21T08:34:21;99869.63;;;12.73;80.30
40954;BME280;26686;50.130;8.710;2023-04-21T08:39:26;99861.13;;;12.88;80.24
40954;BME280;26686;50.130;8.710;2023-04-21T08:44:27;99853.84;;;13.08;78.58
40954;BME280;26686;50.130;8.710;2023-04-21T08:49:30;99856.56;;;13.26;76.94
40954;BME280;26686;50.130;8.710;2023-04-21T08:54:33;99849.69;;;13.23;75.31
40954;BME280;26686;50.130;8.710;2023-04-21T08:59:36;99863.34;;;13.20;75.51
40954;BME280;26686;50.130;8.710;2023-04-21T09:04:46;99865.53;;;13.35;75.08
40954;BME280;26686;50.130;8.710;2023-04-21T09:09:55;99824.78;;;13.23;76.73
40954;BME280;26686;50.130;8.710;2023-04-21T09:14:57;99839.19;;;13.40;76.52
40954;BME280;26686;50.130;8.710;2023-04-21T09:20:18;99852.97;;;13.63;76.48
40954;BME280;26686;50.130;8.710;2023-04-21T09:25:21;99849.28;;;13.64;75.64
40954;BME280;26686;50.130;8.710;2023-04-21T09:30:23;99860.84;;;13.65;75.69
40954;BME280;26686;50.130;8.710;2023-04-21T09:35:32;99868.69;;;13.66;75.87
40954;BME280;26686;50.130;8.710;2023-04-21T09:40:34;99867.16;;;13.82;76.15
40954;BME280;26686;50.130;8.710;2023-04-21T09:45:36;99874.56;;;13.88;74.30
40954;BME280;26686;50.130;8.710;2023-04-21T09:50:41;99846.44;;;13.84;73.95
40954;BME280;26686;50.130;8.710;2023-04-21T09:56:03;99853.22;;;13.96;74.37
40954;BME280;26686;50.130;8.710;2023-04-21T10:01:05;99863.69;;;14.07;74.43
40954;BME280;26686;50.130;8.710;2023-04-21T10:06:07;99844.66;;;14.37;73.33
40954;BME280;26686;50.130;8.710;2023-04-21T10:11:09;99839.53;;;14.52;71.35
40954;BME280;26686;50.130;8.710;2023-04-21T10:16:16;99833.75;;;14.99;71.10
40954;BME280;26686;50.130;8.710;2023-04-21T10:21:18;99834.22;;;15.62;68.64
40954;BME280;26686;50.130;8.710;2023-04-21T10:26:24;99824.78;;;16.40;65.22
40954;BME280;26686;50.130;8.710;2023-04-21T10:31:38;99815.06;;;16.22;64.87
40954;BME280;26686;50.130;8.710;2023-04-21T10:41:57;99825.81;;;15.73;66.58
40954;BME280;26686;50.130;8.710;2023-04-21T10:47:27;99812.22;;;15.58;66.21
40954;BME280;26686;50.130;8.710;2023-04-21T10:52:32;99810.91;;;15.70;65.99
40954;BME280;26686;50.130;8.710;2023-04-21T10:57:35;99818.13;;;15.62;65.59
40954;BME280;26686;50.130;8.710;2023-04-21T11:02:37;99806.53;;;15.45;66.10
40954;BME280;26686;50.130;8.710;2023-04-21T11:07:42;99802.84;;;15.37;67.68
40954;BME280;26686;50.130;8.710;2023-04-21T11:12:44;99788.09;;;15.58;66.65
40954;BME280;26686;50.130;8.710;2023-04-21T11:17:46;99792.63;;;15.74;66.58
40954;BME280;26686;50.130;8.710;2023-04-21T11:22:51;99787.94;;;15.93;65.47
40954;BME280;26686;50.130;8.710;2023-04-21T11:27:54;99752.06;;;15.85;62.46
40954;BME280;26686;50.130;8.710;2023-04-21T11:32:57;99787.69;;;16.27;63.19
40954;BME280;26686;50.130;8.710;2023-04-21T11:38:03;99775.66;;;16.23;63.56
40954;BME280;26686;50.130;8.710;2023-04-21T11:43:05;99776.84;;;16.04;64.10
40954;BME280;26686;50.130;8.710;2023-04-21T11:48:16;99775.34;;;16.01;61.56
40954;BME280;26686;50.130;8.710;2023-04-21T11:53:18;99757.41;;;17.21;57.83
40954;BME280;26686;50.130;8.710;2023-04-21T11:58:20;99767.41;;;17.04;57.84
40954;BME280;26686;50.130;8.710;2023-04-21T12:03:22;99763.84;;;16.80;58.15
40954;BME280;26686;50.130;8.710;2023-04-21T12:08:28;99739.91;;;16.62;59.93
40954;BME280;26686;50.130;8.710;2023-04-21T12:13:29;99753.22;;;17.18;57.60
40954;BME280;26686;50.130;8.710;2023-04-21T12:18:34;99749.63;;;17.49;56.86
40954;BME280;26686;50.130;8.710;2023-04-21T12:23:37;99738.94;;;17.41;56.83
40954;BME280;26686;50.130;8.710;2023-04-21T12:28:39;99735.59;;;17.39;56.86
40954;BME280;26686;50.130;8.710;2023-04-21T12:33:41;99737.50;;;17.30;57.16
40954;BME280;26686;50.130;8.710;2023-04-21T12:38:42;99728.03;;;17.11;56.53
40954;BME280;26686;50.130;8.710;2023-04-21T12:43:44;99731.06;;;17.16;56.49
40954;BME280;26686;50.130;8.710;2023-04-21T12:48:46;99734.50;;;17.48;56.21
40954;BME280;26686;50.130;8.710;2023-04-21T12:53:49;99707.78;;;17.99;55.10
40954;BME280;26686;50.130;8.710;2023-04-21T12:58:51;99713.16;;;18.29;54.45
40954;BME280;26686;50.130;8.710;2023-04-21T13:03:52;99705.81;;;18.53;53.69
40954;BME280;26686;50.130;8.710;2023-04-21T13:08:55;99699.44;;;18.76;52.97
40954;BME280;26686;50.130;8.710;2023-04-21T13:13:57;99700.72;;;18.80;52.02
40954;BME280;26686;50.130;8.710;2023-04-21T13:18:58;99681.94;;;18.71;51.95
40954;BME280;26686;50.130;8.710;2023-04-21T13:24:00;99676.69;;;18.85;50.67
40954;BME280;26686;50.130;8.710;2023-04-21T13:29:03;99663.53;;;18.90;50.45
40954;BME280;26686;50.130;8.710;2023-04-21T13:34:04;99658.78;;;18.92;50.97
40954;BME280;26686;50.130;8.710;2023-04-21T13:39:09;99650.75;;;18.84;50.05
40954;BME280;26686;50.130;8.710;2023-04-21T13:44:11;99640.66;;;18.86;49.58
40954;BME280;26686;50.130;8.710;2023-04-21T13:49:12;99627.53;;;18.83;50.44
40954;BME280;26686;50.130;8.710;2023-04-21T13:54:14;99632.75;;;18.84;49.99
40954;BME280;26686;50.130;8.710;2023-04-21T13:59:16;99621.00;;;18.92;49.44
40954;BME280;26686;50.130;8.710;2023-04-21T14:04:18;99600.97;;;18.80;49.23
40954;BME280;26686;50.130;8.710;2023-04-21T14:09:21;99611.72;;;18.95;49.72
40954;BME280;26686;50.130;8.710;2023-04-21T14:14:23;99596.66;;;18.85;48.94
40954;BME280;26686;50.130;8.710;2023-04-21T14:19:39;99583.84;;;18.87;49.58
40954;BME280;26686;50.130;8.710;2023-04-21T14:24:41;99579.47;;;18.86;49.28
40954;BME280;26686;50.130;8.710;2023-04-21T14:29:42;99563.84;;;18.82;50.19
40954;BME280;26686;50.130;8.710;2023-04-21T14:34:44;99548.38;;;18.69;48.24
40954;BME280;26686;50.130;8.710;2023-04-21T14:39:45;99547.31;;;18.63;49.32
40954;BME280;26686;50.130;8.710;2023-04-21T14:44:47;99542.31;;;18.60;50.46
40954;BME280;26686;50.130;8.710;2023-04-21T14:49:49;99537.50;;;18.55;49.85
40954;BME280;26686;50.130;8.710;2023-04-21T14:54:55;99532.22;;;18.47;50.55
40954;BME280;26686;50.130;8.710;2023-04-21T14:59:57;99514.06;;;18.34;50.16
40954;BME280;26686;50.130;8.710;2023-04-21T15:04:58;99508.31;;;18.37;51.19
40954;BME280;26686;50.130;8.710;2023-04-21T15:10:00;99509.97;;;18.38;50.99
40954;BME280;26686;50.130;8.710;2023-04-21T15:15:02;99507.41;;;18.30;50.47
40954;BME280;26686;50.130;8.710;2023-04-21T15:20:04;99489.31;;;18.24;51.08
40954;BME280;26686;50.130;8.710;2023-04-21T15:25:06;99493.66;;;18.25;50.96
40954;BME280;26686;50.130;8.710;2023-04-21T15:30:08;99475.47;;;18.27;50.93
40954;BME280;26686;50.130;8.710;2023-04-21T15:35:10;99478.41;;;18.32;51.40
40954;BME280;26686;50.130;8.710;2023-04-21T15:40:12;99457.59;;;18.19;50.64
40954;BME280;26686;50.130;8.710;2023-04-21T15:45:13;99470.66;;;18.23;51.10
40954;BME280;26686;50.130;8.710;2023-04-21T15:50:18;99461.69;;;18.15;51.14
40954;BME280;26686;50.130;8.710;2023-04-21T15:55:20;99453.41;;;18.17;53.54
40954;BME280;26686;50.130;8.710;2023-04-21T16:00:22;99449.94;;;18.23;51.92
40954;BME280;26686;50.130;8.710;2023-04-21T16:05:23;99456.47;;;18.35;52.58
40954;BME280;26686;50.130;8.710;2023-04-21T16:10:30;99425.94;;;18.28;51.23
40954;BME280;26686;50.130;8.710;2023-04-21T16:15:32;99415.16;;;18.28;51.39
40954;BME280;26686;50.130;8.710;2023-04-21T16:20:35;99410.81;;;18.27;52.01
40954;BME280;26686;50.130;8.710;2023-04-21T16:25:37;99396.69;;;18.25;51.40
40954;BME280;26686;50.130;8.710;2023-04-21T16:30:39;99381.97;;;18.21;51.46
40954;BME280;26686;50.130;8.710;2023-04-21T16:35:43;99402.47;;;18.22;51.22
40954;BME280;26686;50.130;8.710;2023-04-21T16:40:45;99402.09;;;18.25;51.27
40954;BME280;26686;50.130;8.710;2023-04-21T16:45:47;99397.56;;;18.26;51.30
40954;BME280;26686;50.130;8.710;2023-04-21T16:50:48;99398.75;;;18.23;52.04
40954;BME280;26686;50.130;8.710;2023-04-21T16:55:50;99392.09;;;18.19;51.68
40954;BME280;26686;50.130;8.710;2023-04-21T17:00:52;99387.75;;;18.18;51.56
40954;BME280;26686;50.130;8.710;2023-04-21T17:05:53;99392.28;;;18.17;51.78
40954;BME280;26686;50.130;8.710;2023-04-21T17:10:55;99398.25;;;18.13;51.52
40954;BME280;26686;50.130;8.710;2023-04-21T17:15:58;99410.03;;;18.12;50.58
40954;BME280;26686;50.130;8.710;2023-04-21T17:21:00;99413.13;;;18.09;50.88
40954;BME280;26686;50.130;8.710;2023-04-21T17:26:02;99421.41;;;18.07;50.83
40954;BME280;26686;50.130;8.710;2023-04-21T17:31:05;99405.56;;;17.97;51.11
40954;BME280;26686;50.130;8.710;2023-04-21T17:36:15;99432.13;;;18.00;50.90
40954;BME280;26686;50.130;8.710;2023-04-21T17:41:17;99422.31;;;17.93;50.77
40954;BME280;26686;50.130;8.710;2023-04-21T17:46:19;99431.59;;;17.90;50.51
40954;BME280;26686;50.130;8.710;2023-04-21T17:51:24;99430.06;;;17.88;50.85
40954;BME280;26686;50.130;8.710;2023-04-21T17:56:27;99396.75;;;17.67;51.82
40954;BME280;26686;50.130;8.710;2023-04-21T18:01:30;99415.66;;;17.74;51.59
40954;BME280;26686;50.130;8.710;2023-04-21T18:06:32;99455.06;;;17.81;52.08
40954;BME280;26686;50.130;8.710;2023-04-21T18:11:36;99460.88;;;17.63;47.39
40954;BME280;26686;50.130;8.710;2023-04-21T18:16:38;99441.91;;;17.35;46.09
40954;BME280;26686;50.130;8.710;2023-04-21T18:21:40;99444.97;;;17.17;46.81
40954;BME280;26686;50.130;8.710;2023-04-21T18:26:42;99452.59;;;16.99;46.25
40954;BME280;26686;50.130;8.710;2023-04-21T18:31:44;99448.31;;;16.89;46.58
40954;BME280;26686;50.130;8.710;2023-04-21T18:36:45;99443.84;;;16.82;47.39
40954;BME280;26686;50.130;8.710;2023-04-21T18:41:48;99444.19;;;16.78;48.16
40954;BME280;26686;50.130;8.710;2023-04-21T18:46:52;99440.09;;;16.68;48.70
40954;BME280;26686;50.130;8.710;2023-04-21T18:51:54;99450.66;;;16.69;49.64
40954;BME280;26686;50.130;8.710;2023-04-21T18:56:56;99460.31;;;16.64;49.64
40954;BME280;26686;50.130;8.710;2023-04-21T19:01:58;99469.47;;;16.54;51.12
40954;BME280;26686;50.130;8.710;2023-04-21T19:07:00;99462.63;;;16.43;52.51
40954;BME280;26686;50.130;8.710;2023-04-21T19:12:03;99465.50;;;16.42;53.33
40954;BME280;26686;50.130;8.710;2023-04-21T19:17:05;99455.22;;;16.31;53.83
40954;BME280;26686;50.130;8.710;2023-04-21T19:22:06;99456.50;;;16.35;54.30
40954;BME280;26686;50.130;8.710;2023-04-21T19:27:08;99445.13;;;16.33;54.93
40954;BME280;26686;50.130;8.710;2023-04-21T19:32:10;99461.22;;;16.33;55.63
40954;BME280;26686;50.130;8.710;2023-04-21T19:37:13;99465.94;;;16.31;55.54
40954;BME280;26686;50.130;8.710;2023-04-21T19:42:14;99466.13;;;16.29;55.64
40954;BME280;26686;50.130;8.710;2023-04-21T19:47:18;99454.97;;;16.17;56.83
40954;BME280;26686;50.130;8.710;2023-04-21T19:52:19;99464.34;;;16.21;56.45
40954;BME280;26686;50.130;8.710;2023-04-21T19:57:21;99483.78;;;16.23;57.43
40954;BME280;26686;50.130;8.710;2023-04-21T20:02:23;99475.78;;;16.15;56.84
40954;BME280;26686;50.130;8.710;2023-04-21T20:07:25;99477.81;;;16.13;57.73
40954;BME280;26686;50.130;8.710;2023-04-21T20:12:26;99475.84;;;16.07;58.79
40954;BME280;26686;50.130;8.710;2023-04-21T20:17:29;99487.66;;;15.98;57.94
40954;BME280;26686;50.130;8.710;2023-04-21T20:22:31;99482.69;;;15.86;58.70
40954;BME280;26686;50.130;8.710;2023-04-21T20:27:33;99530.00;;;15.79;58.24
40954;BME280;26686;50.130;8.710;2023-04-21T20:32:35;99542.78;;;15.69;57.95
40954;BME280;26686;50.130;8.710;2023-04-21T20:37:36;99521.88;;;15.56;58.43
40954;BME280;26686;50.130;8.710;2023-04-21T20:42:38;99526.75;;;15.52;58.45
40954;BME280;26686;50.130;8.710;2023-04-21T20:47:39;99531.78;;;15.47;58.33
40954;BME280;26686;50.130;8.710;2023-04-21T20:52:41;99497.97;;;15.38;58.54
40954;BME280;26686;50.130;8.710;2023-04-21T20:57:43;99501.31;;;15.40;59.21
40954;BME280;26686;50.130;8.710;2023-04-21T21:02:44;99501.31;;;15.40;59.13
40954;BME280;26686;50.130;8.710;2023-04-21T21:07:46;99496.47;;;15.35;59.65
40954;BME280;26686;50.130;8.710;2023-04-21T21:12:48;99500.53;;;15.31;59.52
40954;BME280;26686;50.130;8.710;2023-04-21T21:17:49;99500.88;;;15.28;59.37
40954;BME280;26686;50.130;8.710;2023-04-21T21:22:51;99477.91;;;15.17;59.58
40954;BME280;26686;50.130;8.710;2023-04-21T21:27:52;99476.63;;;15.13;59.19
40954;BME280;26686;50.130;8.710;2023-04-21T21:32:54;99503.06;;;15.16;59.90
40954;BME280;26686;50.130;8.710;2023-04-21T21:37:56;99492.69;;;15.05;59.73
40954;BME280;26686;50.130;8.710;2023-04-21T21:42:57;99496.72;;;15.09;59.61
40954;BME280;26686;50.130;8.710;2023-04-21T21:48:01;99499.88;;;15.13;59.32
40954;BME280;26686;50.130;8.710;2023-04-21T21:53:03;99500.06;;;15.11;59.52
40954;BME280;26686;50.130;8.710;2023-04-21T21:58:05;99474.66;;;14.82;59.70
40954;BME280;26686;50.130;8.710;2023-04-21T22:03:06;99501.09;;;15.02;60.19
40954;BME280;26686;50.130;8.710;2023-04-21T22:08:10;99507.63;;;14.99;60.22
40954;BME280;26686;50.130;8.710;2023-04-21T22:13:12;99501.59;;;14.89;60.55
40954;BME280;26686;50.130;8.710;2023-04-21T22:18:14;99505.78;;;14.92;60.57
40954;BME280;26686;50.130;8.710;2023-04-21T22:23:18;99514.84;;;14.82;61.18
40954;BME280;26686;50.130;8.710;2023-04-21T22:28:21;99502.97;;;14.77;61.53
40954;BME280;26686;50.130;8.710;2023-04-21T22:33:23;99503.31;;;14.74;61.82
40954;BME280;26686;50.130;8.710;2023-04-21T22:38:24;99518.22;;;14.76;62.37
40954;BME280;26686;50.130;8.710;2023-04-21T22:43:26;99517.22;;;14.77;62.31
40954;BME280;26686;50.130;8.710;2023-04-21T22:48:27;99514.88;;;14.74;62.85
40954;BME280;26686;50.130;8.710;2023-04-21T22:53:30;99520.88;;;14.68;62.80
40954;BME280;26686;50.130;8.710;2023-04-21T22:58:31;99533.78;;;14.73;62.97
40954;BME280;26686;50.130;8.710;2023-04-21T23:03:33;99529.25;;;14.65;63.07
40954;BME280;26686;50.130;8.710;2023-04-21T23:08:37;99538.31;;;14.64;63.04
40954;BME280;26686;50.130;8.710;2023-04-21T23:13:39;99527.53;;;14.56;62.66
40954;BME280;26686;50.130;8.710;2023-04-21T23:18:41;99530.38;;;14.54;62.74
40954;BME280;26686;50.130;8.710;2023-04-21T23:23:42;99536.25;;;14.49;62.91
40954;BME280;26686;50.130;8.710;2023-04-21T23:28:44;99538.28;;;14.47;63.07
40954;BME280;26686;50.130;8.710;2023-04-21T23:33:45;99531.22;;;14.46;62.75
40954;BME280;26686;50.130;8.710;2023-04-21T23:38:47;99512.78;;;14.35;63.01
40954;BME280;26686;50.130;8.710;2023-04-21T23:43:49;99512.13;;;14.33;63.14
40954;BME280;26686;50.130;8.710;2023-04-21T23:48:50;99524.69;;;14.41;62.99
40954;BME280;26686;50.130;8.710;2023-04-21T23:53:52;99527.69;;;14.38;63.18
40954;BME280;26686;50.130;8.710;2023-04-21T23:58:54;99514.16;;;14.31;63.02
